CheckWX is a tool to help pilots better visualize weather data.  It is not intended as a substitute for an official pre-flight weather briefing.

18:32:41 UTC

KEED METAR
Needles Airport
Needles, California, USA
Current

37 mins ago

KEED 221756Z AUTO 01016G20KT 10SM CLR 10/M03 A2992 RMK AO2 SLP126 T01001028 10100 20061 51023
Observed
Feb-22 @ 17:56 UTC
Wind
  • 010° at 16 KTS
  • Gusting to KTS
Visibility
10 SM
Flight Rules
VFR
Cloud Levels
  • Clear skies
Temperature
10°C / 50°F
Dewpoint
-3°C / 27°F
Humidity
40%
Altimeter
29.92" Hg
Pressure
1012.6 hPa
Previous

2 hours ago

KEED 221656Z AUTO 01014KT 10SM CLR 08/M01 A2991 RMK AO2 SLP122 T00831006
Observed
Feb-22 @ 16:56 UTC
Wind
  • 010° at 14 KTS
Visibility
10 SM
Flight Rules
VFR
Cloud Levels
  • Clear skies
Temperature
C / 46°F
Dewpoint
-1°C / 30°F
Humidity
53%
Altimeter
29.91" Hg
Pressure
1012.2 hPa
Previous

3 hours ago

KEED 221556Z AUTO 02010KT 10SM CLR 07/00 A2988 RMK AO2 SLP114 T00670000
Observed
Feb-22 @ 15:56 UTC
Wind
  • 020° at 10 KTS
Visibility
10 SM
Flight Rules
VFR
Cloud Levels
  • Clear skies
Temperature
C / 45°F
Dewpoint
C / 32°F
Humidity
61%
Altimeter
29.88" Hg
Pressure
1011.4 hPa